Strona główna
METAR-TAF:

METAR-TAF

Lotnisko :

Port lotniczy Umeå

Umeå, Szwecja

Szerokość geograficzna: 63-48N, Długość geograficzna: 020-17E, wysokość: 7 m

Aktualna obserwacja pogody

Raport powstał 27 minut temu, godzina 02:20 UTC
Wiatr 7 kt od północ
Temperatura -9°C
Wilgotność 92%
Ciśnienie 995 hPa
Widzialność 10 km lub więcej

METAR: ESNU 240220Z AUTO 36007KT 9999 OVC009/// M09/M10 Q0995

czas: 03:47 (02:47 UTC)

Prognoza

Raport powstał 17 minut temu, godzina 02:30 UTC
Prognoza ważna od 24 godzina 03 UTC do 24 godzina 12 UTC
Wiatr 6 kt od północ
Widzialność 10 km lub więcej
Zachmurzenie całkowite na wysokości 900 ft
Prawdopodobieństwo 40%
od 24 godzina 03 UTC do 24 godzina 12 UTC
Widzialność: 4000 m
Mało chmury na wysokości 1000 ft
Zachmurzenie całkowite na wysokości 1500 ft
słaby śnieg

TAF: ESNU 240230Z 2403/2412 36006KT 9999 OVC009 PROB40 2403/2412 4000 -SN FEW010 OVC015

Obserwacja i prognoza pogody dla ponad 4000 lotnisk (raport METAR i TAF).

Dostępne stacje oznaczono żółtymi i czerwonymi punktami na mapie.

Najedź kursorem aby zobaczyć nazwę stacji.

Kliknij aby zobaczyć obserwacje i prognozy pogody.

Aby zmienić mapę: kliknij na zielony przycisk z czarnym krzyżykiem, aby powiększyć; na zielony przycisk z myślnikiem, aby pomniejszyć; na zielone strzałki, aby przejść do map sąsiednich.


METAR-TAF: